createdAt,value
2022-09-22T00:00:08.339Z,23.96
2022-09-22T00:01:08.458Z,21.58
2022-09-22T00:02:08.392Z,22.31
2022-09-22T00:03:08.299Z,23.44
2022-09-22T00:04:08.306Z,23.35
2022-09-22T00:05:08.280Z,22.63
2022-09-22T00:06:08.269Z,22.63
2022-09-22T00:07:08.263Z,23.46
2022-09-22T00:08:08.269Z,22.73
2022-09-22T00:09:08.235Z,21.80
2022-09-22T00:10:08.228Z,21.18
2022-09-22T00:11:08.219Z,20.66
2022-09-22T00:12:08.356Z,20.65
2022-09-22T00:13:08.230Z,20.24
2022-09-22T00:14:08.265Z,20.97
2022-09-22T00:15:08.171Z,21.48
2022-09-22T00:16:08.211Z,20.14
2022-09-22T00:17:08.152Z,19.83
2022-09-22T00:18:08.142Z,25.20
2022-09-22T00:19:08.129Z,23.25
2022-09-22T00:20:08.119Z,21.49
2022-09-22T00:21:08.114Z,20.66
2022-09-22T00:22:08.099Z,23.04
2022-09-22T00:23:08.086Z,25.10
2022-09-22T00:24:08.261Z,25.43
2022-09-22T00:25:08.064Z,26.56
2022-09-22T00:26:08.056Z,23.57
2022-09-22T00:27:08.043Z,22.95
2022-09-22T00:28:08.040Z,24.91
2022-09-22T00:29:08.180Z,22.95
2022-09-22T00:30:08.011Z,24.40
2022-09-22T00:31:08.077Z,24.91
2022-09-22T00:32:08.045Z,25.02
2022-09-22T00:33:07.979Z,25.75
2022-09-22T00:34:07.968Z,23.89
2022-09-22T00:35:07.957Z,23.16
2022-09-22T00:36:07.947Z,22.22
2022-09-22T00:37:07.934Z,22.33
2022-09-22T00:38:07.926Z,22.02
2022-09-22T00:39:08.022Z,21.30
2022-09-22T00:40:07.956Z,20.78
2022-09-22T00:41:07.892Z,20.36
2022-09-22T00:42:07.882Z,20.05
2022-09-22T00:43:07.871Z,20.67
2022-09-22T00:44:07.935Z,20.98
2022-09-22T00:45:07.875Z,20.47
2022-09-22T00:46:07.840Z,22.12
2022-09-22T00:47:07.831Z,20.98
2022-09-22T00:48:07.820Z,20.05
2022-09-22T00:49:07.807Z,19.74
2022-09-22T00:50:07.797Z,19.95
2022-09-22T00:51:07.786Z,18.91
2022-09-22T00:52:07.781Z,18.08
2022-09-22T00:53:07.765Z,17.57
2022-09-22T00:54:07.754Z,16.84
2022-09-22T00:55:07.743Z,16.63
2022-09-22T00:56:07.737Z,16.00
2022-09-22T00:57:07.724Z,15.59
2022-09-22T00:58:07.714Z,15.70
2022-09-22T00:59:07.828Z,15.59
2022-09-22T01:00:07.689Z,15.39
2022-09-22T01:01:07.774Z,16.11
2022-09-22T01:02:07.737Z,15.39
2022-09-22T01:03:07.667Z,17.04
2022-09-22T01:04:07.649Z,17.97
2022-09-22T01:05:07.634Z,17.57
2022-09-22T01:06:07.626Z,18.49
2022-09-22T01:07:07.615Z,17.66
2022-09-22T01:08:07.606Z,17.46
2022-09-22T01:09:07.674Z,17.05
2022-09-22T01:10:07.588Z,16.94
2022-09-22T01:11:07.573Z,17.77
2022-09-22T01:12:07.564Z,18.50
2022-09-22T01:13:07.551Z,18.40
2022-09-22T01:14:07.549Z,19.02
2022-09-22T01:15:07.530Z,18.60
2022-09-22T01:16:07.625Z,19.64
2022-09-22T01:17:07.531Z,19.23
2022-09-22T01:18:07.500Z,19.96
2022-09-22T01:19:07.491Z,20.17
2022-09-22T01:20:07.478Z,19.34
2022-09-22T01:21:07.466Z,19.75
2022-09-22T01:22:07.460Z,18.72
2022-09-22T01:23:07.445Z,19.34
2022-09-22T01:24:07.436Z,19.44
2022-09-22T01:25:07.424Z,19.96
2022-09-22T01:26:07.419Z,19.75
2022-09-22T01:27:07.404Z,19.13
2022-09-22T01:28:07.394Z,19.75
2022-09-22T01:29:07.537Z,22.13
2022-09-22T01:30:07.377Z,20.48
2022-09-22T01:31:07.418Z,20.48
2022-09-22T01:32:07.353Z,20.69
2022-09-22T01:33:07.361Z,20.90
2022-09-22T01:34:07.332Z,22.04
2022-09-22T01:35:07.318Z,22.24
2022-09-22T01:36:07.309Z,22.36
2022-09-22T01:37:07.295Z,21.53
2022-09-22T01:38:07.289Z,21.21
2022-09-22T01:39:07.503Z,22.34
2022-09-22T01:40:07.337Z,22.56
2022-09-22T01:41:07.252Z,25.36
2022-09-22T01:42:07.244Z,22.67
2022-09-22T01:43:07.230Z,21.53
2022-09-22T01:44:07.220Z,20.90
2022-09-22T01:45:07.209Z,20.28
2022-09-22T01:46:07.256Z,19.56
2022-09-22T01:47:07.189Z,19.66
2022-09-22T01:48:07.182Z,19.35
2022-09-22T01:49:07.186Z,20.17
2022-09-22T01:50:07.153Z,20.59
2022-09-22T01:51:07.141Z,20.69
2022-09-22T01:52:07.131Z,22.45
2022-09-22T01:53:07.119Z,20.28
2022-09-22T01:54:07.205Z,20.38
2022-09-22T01:55:07.096Z,19.96
2022-09-22T01:56:07.087Z,19.96
2022-09-22T01:57:07.074Z,21.32
2022-09-22T01:58:07.065Z,21.84
2022-09-22T01:59:07.052Z,20.08
2022-09-22T02:00:07.043Z,20.29
2022-09-22T02:01:10.822Z,19.98
2022-09-22T02:02:07.147Z,19.67
2022-09-22T02:03:07.007Z,20.81
2022-09-22T02:04:07.003Z,21.01
2022-09-22T02:05:07.009Z,20.81
2022-09-22T02:06:06.978Z,20.91
2022-09-22T02:07:06.966Z,20.18
2022-09-22T02:08:06.956Z,20.29
2022-09-22T02:09:07.130Z,20.18
2022-09-22T02:10:06.932Z,20.29
2022-09-22T02:11:06.919Z,21.73
2022-09-22T02:12:06.911Z,23.71
2022-09-22T02:13:06.897Z,21.54
2022-09-22T02:14:06.895Z,23.20
2022-09-22T02:15:06.876Z,23.00
2022-09-22T02:16:07.070Z,22.07
2022-09-22T02:17:06.852Z,23.52
2022-09-22T02:18:06.840Z,24.35
2022-09-22T02:19:13.189Z,23.00
2022-09-22T02:20:07.848Z,22.69
2022-09-22T02:21:06.836Z,22.89
2022-09-22T02:22:06.800Z,21.97
2022-09-22T02:23:06.785Z,22.17
2022-09-22T02:24:06.886Z,22.99
2022-09-22T02:25:06.762Z,24.24
2022-09-22T02:26:06.755Z,21.45
2022-09-22T02:27:06.741Z,22.38
2022-09-22T02:28:06.736Z,22.17
2022-09-22T02:29:06.718Z,21.55
2022-09-22T02:30:06.712Z,21.76
2022-09-22T02:31:21.510Z,21.55
2022-09-22T02:32:07.850Z,22.69
2022-09-22T02:33:06.680Z,22.58
2022-09-22T02:34:06.668Z,25.38
2022-09-22T02:35:06.668Z,22.70
2022-09-22T02:36:06.643Z,23.63
2022-09-22T02:37:06.662Z,24.05
2022-09-22T02:38:06.621Z,23.74
2022-09-22T02:39:06.727Z,23.32
2022-09-22T02:40:06.647Z,22.39
2022-09-22T02:41:06.590Z,24.05
2022-09-22T02:42:06.575Z,22.89
2022-09-22T02:43:06.565Z,22.39
2022-09-22T02:44:06.555Z,21.87
2022-09-22T02:45:06.543Z,21.66
2022-09-22T02:46:06.583Z,22.58
2022-09-22T02:47:06.519Z,22.70
2022-09-22T02:48:06.511Z,23.94
2022-09-22T02:49:06.497Z,22.39
2022-09-22T02:50:06.488Z,21.34
2022-09-22T02:51:06.478Z,20.72
2022-09-22T02:52:06.466Z,21.03
2022-09-22T02:53:06.484Z,21.55
2022-09-22T02:54:06.702Z,21.34
2022-09-22T02:55:06.438Z,20.20
2022-09-22T02:56:06.426Z,22.58
2022-09-22T02:57:06.415Z,21.34
2022-09-22T02:58:06.400Z,21.45
2022-09-22T02:59:06.386Z,21.55
2022-09-22T03:00:06.381Z,24.67
2022-09-22T03:01:06.394Z,22.70
2022-09-22T03:02:06.361Z,21.87
2022-09-22T03:03:06.344Z,22.08
2022-09-22T03:04:06.335Z,21.35
2022-09-22T03:05:06.429Z,21.35
2022-09-22T03:06:06.312Z,20.62
2022-09-22T03:07:06.303Z,21.76
2022-09-22T03:08:06.290Z,22.08
2022-09-22T03:09:06.463Z,21.04
2022-09-22T03:10:06.270Z,20.62
2022-09-22T03:11:06.255Z,22.07
2022-09-22T03:12:06.244Z,21.66
2022-09-22T03:13:21.493Z,20.83
2022-09-22T03:14:07.262Z,22.17
2022-09-22T03:15:06.210Z,20.83
2022-09-22T03:16:06.284Z,20.00
2022-09-22T03:17:06.188Z,20.20
2022-09-22T03:18:06.183Z,20.83
2022-09-22T03:19:06.164Z,20.72
2022-09-22T03:20:06.165Z,20.00
2022-09-22T03:21:06.145Z,21.14
2022-09-22T03:22:06.134Z,21.04
2022-09-22T03:23:06.123Z,20.00
2022-09-22T03:24:06.188Z,20.83
2022-09-22T03:25:06.124Z,20.31
2022-09-22T03:26:06.092Z,20.62
2022-09-22T03:27:06.079Z,22.70
2022-09-22T03:28:06.067Z,22.39
2022-09-22T03:29:06.058Z,21.04
2022-09-22T03:30:06.053Z,21.35
2022-09-22T03:31:06.093Z,21.77
2022-09-22T03:32:06.025Z,21.47
2022-09-22T03:33:06.016Z,23.33
2022-09-22T03:34:06.002Z,22.40
2022-09-22T03:35:05.991Z,23.96
2022-09-22T03:36:05.980Z,22.50
2022-09-22T03:37:05.971Z,22.71
2022-09-22T03:38:05.957Z,22.19
2022-09-22T03:39:06.058Z,22.93
2022-09-22T03:40:05.992Z,22.72
2022-09-22T03:41:05.948Z,22.83
2022-09-22T03:42:05.915Z,24.80
2022-09-22T03:43:05.921Z,22.00
2022-09-22T03:44:05.891Z,22.41
2022-09-22T03:45:05.892Z,23.45
2022-09-22T03:46:05.920Z,21.89
2022-09-22T03:47:05.860Z,22.41
2022-09-22T03:48:05.847Z,23.03
2022-09-22T03:49:05.844Z,21.79
2022-09-22T03:50:05.827Z,21.15
2022-09-22T03:51:05.817Z,22.40
2022-09-22T03:52:05.804Z,24.69
2022-09-22T03:53:05.795Z,21.89
2022-09-22T03:54:05.902Z,22.83
2022-09-22T03:55:05.770Z,21.58
2022-09-22T03:56:05.761Z,21.48
2022-09-22T03:57:05.771Z,21.88
2022-09-22T03:58:05.736Z,23.45
2022-09-22T03:59:05.731Z,22.52
2022-09-22T04:01:05.771Z,21.79
2022-09-22T04:02:05.762Z,21.79
2022-09-22T04:03:05.718Z,21.48
2022-09-22T04:04:05.671Z,20.86
2022-09-22T04:05:05.664Z,21.88
2022-09-22T04:06:05.649Z,21.36
2022-09-22T04:07:07.287Z,20.84
2022-09-22T04:08:05.635Z,21.05
2022-09-22T04:09:05.713Z,20.84
2022-09-22T04:10:05.617Z,20.12
2022-09-22T04:11:05.628Z,19.91
2022-09-22T04:12:05.642Z,19.91
2022-09-22T04:13:05.663Z,19.81
2022-09-22T04:14:05.708Z,21.26
2022-09-22T04:15:05.831Z,22.09
2022-09-22T04:16:05.691Z,20.22
2022-09-22T04:17:05.805Z,20.22
2022-09-22T04:18:05.574Z,20.01
2022-09-22T04:19:05.509Z,20.01
2022-09-22T04:20:05.497Z,20.01
2022-09-22T04:21:05.616Z,19.91
2022-09-22T04:22:05.474Z,19.81
2022-09-22T04:23:05.467Z,19.70
2022-09-22T04:24:05.587Z,20.22
2022-09-22T04:25:05.442Z,20.32
2022-09-22T04:26:05.433Z,19.70
2022-09-22T04:27:21.356Z,19.81
2022-09-22T04:28:06.441Z,19.81
2022-09-22T04:29:05.424Z,20.01
2022-09-22T04:30:05.389Z,20.53
2022-09-22T04:31:05.490Z,21.58
2022-09-22T04:32:05.366Z,21.89
2022-09-22T04:33:05.356Z,20.96
2022-09-22T04:34:07.590Z,20.65
2022-09-22T04:35:05.342Z,19.92
2022-09-22T04:36:05.323Z,19.91
2022-09-22T04:37:05.313Z,20.43
2022-09-22T04:38:05.300Z,21.17
2022-09-22T04:39:05.424Z,20.65
2022-09-22T04:40:05.312Z,20.75
2022-09-22T04:41:05.270Z,20.65
2022-09-22T04:42:05.258Z,20.54
2022-09-22T04:43:05.249Z,20.44
2022-09-22T04:44:05.237Z,21.17
2022-09-22T04:45:05.246Z,20.23
2022-09-22T04:46:05.263Z,21.27
2022-09-22T04:47:05.205Z,21.58
2022-09-22T04:48:05.191Z,20.54
2022-09-22T04:49:05.185Z,20.34
2022-09-22T04:50:05.174Z,20.13
2022-09-22T04:51:05.165Z,19.49
2022-09-22T04:52:05.150Z,21.06
2022-09-22T04:53:05.140Z,20.34
2022-09-22T04:54:05.176Z,19.82
2022-09-22T04:55:05.117Z,19.82
2022-09-22T04:56:05.106Z,19.71
2022-09-22T04:57:05.095Z,19.81
2022-09-22T04:58:05.121Z,19.60
2022-09-22T04:59:05.156Z,20.13
2022-09-22T05:00:05.095Z,19.81
2022-09-22T05:01:05.155Z,19.81
2022-09-22T05:02:05.046Z,20.54
2022-09-22T05:03:05.077Z,21.27
2022-09-22T05:04:05.017Z,20.86
2022-09-22T05:05:05.009Z,20.86
2022-09-22T05:06:04.994Z,20.75
2022-09-22T05:07:05.249Z,20.54
2022-09-22T05:08:04.994Z,20.76
2022-09-22T05:09:05.120Z,20.55
2022-09-22T05:10:04.950Z,21.59
2022-09-22T05:11:04.949Z,20.86
2022-09-22T05:12:04.928Z,21.69
2022-09-22T05:13:04.922Z,20.76
2022-09-22T05:14:04.907Z,22.31
2022-09-22T05:15:04.896Z,21.38
2022-09-22T05:16:04.975Z,21.17
2022-09-22T05:17:04.899Z,20.97
2022-09-22T05:18:04.873Z,20.97
2022-09-22T05:19:04.854Z,20.34
2022-09-22T05:20:04.842Z,20.34
2022-09-22T05:21:04.842Z,20.34
2022-09-22T05:22:04.820Z,21.38
2022-09-22T05:23:04.810Z,20.55
2022-09-22T05:24:04.797Z,20.97
2022-09-22T05:25:04.790Z,21.69
2022-09-22T05:26:04.776Z,20.86
2022-09-22T05:27:04.780Z,20.65
2022-09-22T05:28:04.759Z,21.07
2022-09-22T05:29:04.745Z,22.31
2022-09-22T05:30:04.752Z,20.86
2022-09-22T05:31:04.727Z,21.48
2022-09-22T05:32:04.771Z,22.31
2022-09-22T05:33:04.722Z,20.86
2022-09-22T05:34:04.693Z,20.55
2022-09-22T05:35:04.679Z,20.34
2022-09-22T05:36:04.667Z,20.34
2022-09-22T05:37:04.662Z,21.69
2022-09-22T05:38:04.651Z,20.44
2022-09-22T05:39:04.752Z,20.13
2022-09-22T05:40:04.667Z,20.34
2022-09-22T05:41:04.615Z,20.34
2022-09-22T05:42:08.861Z,20.23
2022-09-22T05:43:05.623Z,20.03
2022-09-22T05:44:04.601Z,19.61
2022-09-22T05:45:04.569Z,19.81
2022-09-22T05:46:04.581Z,19.60
2022-09-22T05:47:04.548Z,19.60
2022-09-22T05:48:04.539Z,19.29
2022-09-22T05:49:04.554Z,19.60
2022-09-22T05:50:04.512Z,19.49
2022-09-22T05:51:04.506Z,20.12
2022-09-22T05:52:04.491Z,19.39
2022-09-22T05:53:04.485Z,20.01
2022-09-22T05:54:04.476Z,19.70
2022-09-22T05:55:04.459Z,19.08
2022-09-22T05:56:04.451Z,18.46
2022-09-22T05:57:04.464Z,18.45
2022-09-22T05:58:04.454Z,18.76
2022-09-22T05:59:04.432Z,18.66
2022-09-22T06:00:04.405Z,18.97
2022-09-22T06:01:04.559Z,18.66
2022-09-22T06:02:18.041Z,19.18
2022-09-22T06:03:04.486Z,18.45
2022-09-22T06:04:04.362Z,18.66
2022-09-22T06:05:04.373Z,18.55
2022-09-22T06:06:04.346Z,19.49
2022-09-22T06:07:04.329Z,19.49
2022-09-22T06:08:04.316Z,19.49
2022-09-22T06:09:04.395Z,18.46
2022-09-22T06:10:04.304Z,18.76
2022-09-22T06:11:04.283Z,18.87
2022-09-22T06:12:04.271Z,18.55
2022-09-22T06:13:04.260Z,18.35
2022-09-22T06:14:04.250Z,18.14
2022-09-22T06:15:04.249Z,17.93
2022-09-22T06:16:04.276Z,18.66
2022-09-22T06:17:04.219Z,17.82
2022-09-22T06:18:04.207Z,17.71
2022-09-22T06:19:04.198Z,17.92
2022-09-22T06:20:04.181Z,17.61
2022-09-22T06:21:04.196Z,17.30
2022-09-22T06:22:04.177Z,16.99
2022-09-22T06:23:04.171Z,16.98
2022-09-22T06:24:04.146Z,16.77
2022-09-22T06:25:04.133Z,16.47
2022-09-22T06:26:04.127Z,16.36
2022-09-22T06:27:04.114Z,16.57
2022-09-22T06:28:04.110Z,16.26
2022-09-22T06:29:04.144Z,16.04
2022-09-22T06:30:04.082Z,15.73
2022-09-22T06:31:04.063Z,15.53
2022-09-22T06:32:04.099Z,15.31
2022-09-22T06:33:04.043Z,15.21
2022-09-22T06:34:07.505Z,15.00
2022-09-22T06:35:04.107Z,14.90
2022-09-22T06:36:04.010Z,14.59
2022-09-22T06:37:04.025Z,14.27
2022-09-22T06:38:03.983Z,14.17
2022-09-22T06:39:03.973Z,14.17
2022-09-22T06:40:04.148Z,13.85
2022-09-22T06:41:03.952Z,13.64
2022-09-22T06:42:03.940Z,13.54
2022-09-22T06:43:03.931Z,13.23
2022-09-22T06:44:03.918Z,13.02
2022-09-22T06:45:03.906Z,13.02
2022-09-22T06:46:03.948Z,12.60
2022-09-22T06:47:04.082Z,12.50
2022-09-22T06:48:08.923Z,12.29
2022-09-22T06:49:03.863Z,12.08
2022-09-22T06:50:03.856Z,12.18
2022-09-22T06:51:03.850Z,11.67
2022-09-22T06:52:03.833Z,11.46
2022-09-22T06:53:03.849Z,10.94
2022-09-22T06:54:03.809Z,10.73
2022-09-22T06:55:03.808Z,10.52
2022-09-22T06:56:03.822Z,10.21
2022-09-22T06:57:03.992Z,10.00
2022-09-22T06:58:03.775Z,9.48
2022-09-22T06:59:10.220Z,8.76
2022-09-22T07:00:04.780Z,8.76
2022-09-22T07:01:08.928Z,8.14
2022-09-22T07:02:03.880Z,8.86
2022-09-22T07:03:03.715Z,7.93
2022-09-22T07:04:03.703Z,7.52
2022-09-22T07:05:03.690Z,6.49
2022-09-22T07:06:03.677Z,5.45
2022-09-22T07:07:03.675Z,3.70
2022-09-22T07:08:03.964Z,2.98
2022-09-22T07:09:03.669Z,1.03
2022-09-22T07:10:03.640Z,0.61
2022-09-22T07:11:03.625Z,0.00
2022-09-22T07:12:03.613Z,0.20
2022-09-22T07:13:03.600Z,0.00
2022-09-22T07:14:03.592Z,1.53
2022-09-22T07:15:03.583Z,4.70
2022-09-22T07:16:03.633Z,5.52
2022-09-22T07:17:03.602Z,11.44
2022-09-22T07:18:03.935Z,14.50
2022-09-22T07:19:03.536Z,21.02
2022-09-22T07:20:03.524Z,25.19
2022-09-22T07:21:03.510Z,37.63
2022-09-22T07:22:03.504Z,41.49
2022-09-22T07:23:03.492Z,47.61
2022-09-22T07:24:03.484Z,47.49
2022-09-22T07:25:03.498Z,54.11
2022-09-22T07:26:03.458Z,56.63
2022-09-22T07:27:03.451Z,61.00
2022-09-22T07:28:03.455Z,70.89
2022-09-22T07:29:03.637Z,68.75
2022-09-22T07:30:03.697Z,71.47
2022-09-22T07:31:03.464Z,69.19
2022-09-22T07:32:03.426Z,66.31
2022-09-22T07:33:03.381Z,80.24
2022-09-22T07:34:03.370Z,76.04
2022-09-22T07:35:03.373Z,78.34
2022-09-22T07:36:03.347Z,78.91
2022-09-22T07:37:03.339Z,82.17
2022-09-22T07:38:03.347Z,80.74
2022-09-22T07:39:03.315Z,87.55
2022-09-22T07:40:03.611Z,84.60
2022-09-22T07:41:03.571Z,76.24
2022-09-22T07:42:03.284Z,87.81
2022-09-22T07:43:03.270Z,85.84
2022-09-22T07:44:03.259Z,87.67
2022-09-22T07:45:03.249Z,83.67
2022-09-22T07:46:03.239Z,85.90
2022-09-22T07:47:03.368Z,85.80
2022-09-22T07:48:03.219Z,87.02
2022-09-22T07:49:03.203Z,95.64
2022-09-22T07:50:03.195Z,95.50
2022-09-22T07:51:03.233Z,94.93
2022-09-22T07:52:03.332Z,96.96
2022-09-22T07:53:03.447Z,93.61
2022-09-22T07:54:03.182Z,95.74
2022-09-22T07:55:03.162Z,94.62
2022-09-22T07:56:03.143Z,96.00
2022-09-22T07:57:03.171Z,97.42
2022-09-22T07:58:03.307Z,92.21
2022-09-22T07:59:03.310Z,98.54
2022-09-22T08:00:03.311Z,97.38
2022-09-22T08:01:03.395Z,95.15
2022-09-22T08:02:03.339Z,96.33
2022-09-22T08:03:03.313Z,98.40
2022-09-22T08:04:03.113Z,96.84
2022-09-22T08:05:03.027Z,98.86
2022-09-22T08:06:06.079Z,98.25
2022-09-22T08:07:03.004Z,98.92
2022-09-22T08:08:02.996Z,98.21
2022-09-22T08:09:02.984Z,99.12
2022-09-22T08:10:02.974Z,96.75
2022-09-22T08:11:02.967Z,98.93
2022-09-22T08:12:02.956Z,98.22
2022-09-22T08:13:02.969Z,98.88
2022-09-22T08:14:02.938Z,98.27
2022-09-22T08:15:02.950Z,96.36
2022-09-22T08:16:02.967Z,97.27
2022-09-22T08:17:02.898Z,97.82
2022-09-22T08:18:02.891Z,97.32
2022-09-22T08:19:02.874Z,96.56
2022-09-22T08:20:02.866Z,97.53
2022-09-22T08:21:02.856Z,94.81
2022-09-22T08:22:02.850Z,96.48
2022-09-22T08:23:02.935Z,93.50
2022-09-22T08:24:02.821Z,93.44
2022-09-22T08:25:02.818Z,94.45
2022-09-22T08:26:02.953Z,94.31
2022-09-22T08:27:02.793Z,92.59
2022-09-22T08:28:02.789Z,92.59
2022-09-22T08:29:02.793Z,94.56
2022-09-22T08:30:02.766Z,90.13
2022-09-22T08:31:02.872Z,90.84
2022-09-22T08:32:02.738Z,88.92
2022-09-22T08:33:02.724Z,84.39
2022-09-22T08:34:02.716Z,81.93
2022-09-22T08:35:02.750Z,83.65
2022-09-22T08:36:02.729Z,82.14
2022-09-22T08:37:02.680Z,81.63
2022-09-22T08:38:02.674Z,80.73
2022-09-22T08:39:02.659Z,77.81
2022-09-22T08:40:02.705Z,74.75
2022-09-22T08:41:02.639Z,71.23
2022-09-22T08:42:02.629Z,72.71
2022-09-22T08:43:02.618Z,78.30
2022-09-22T08:44:02.606Z,75.05
2022-09-22T08:45:02.638Z,76.35
2022-09-22T08:46:02.587Z,72.37
2022-09-22T08:47:02.630Z,72.87
2022-09-22T08:48:02.565Z,70.19
2022-09-22T08:49:02.550Z,72.30
2022-09-22T08:50:02.543Z,67.28
2022-09-22T08:51:02.534Z,66.24
2022-09-22T08:52:02.528Z,66.05
2022-09-22T08:53:02.510Z,64.64
2022-09-22T08:54:03.649Z,65.64
2022-09-22T08:55:02.484Z,63.43
2022-09-22T08:56:02.483Z,63.31
2022-09-22T08:57:02.497Z,63.37
2022-09-22T08:58:02.458Z,60.84
2022-09-22T08:59:02.442Z,62.77
2022-09-22T09:00:02.471Z,60.16
2022-09-22T09:01:02.455Z,57.33
2022-09-22T09:02:02.540Z,56.91
2022-09-22T09:03:02.596Z,60.12
2022-09-22T09:04:02.400Z,57.51
2022-09-22T09:05:02.377Z,59.96
2022-09-22T09:06:02.370Z,57.15
2022-09-22T09:07:02.357Z,57.26
2022-09-22T09:08:02.350Z,57.96
2022-09-22T09:09:05.097Z,57.73
2022-09-22T09:10:02.333Z,55.63
2022-09-22T09:11:02.316Z,58.00
2022-09-22T09:12:02.306Z,56.37
2022-09-22T09:13:02.333Z,55.65
2022-09-22T09:14:02.298Z,55.35
2022-09-22T09:15:02.271Z,55.32
2022-09-22T09:16:02.397Z,52.64
2022-09-22T09:17:02.282Z,53.85
2022-09-22T09:18:02.250Z,54.29
2022-09-22T09:19:02.231Z,52.00
2022-09-22T09:20:02.221Z,52.19
2022-09-22T09:21:02.209Z,51.09
2022-09-22T09:22:02.197Z,51.39
2022-09-22T09:23:02.188Z,50.70
2022-09-22T09:26:02.156Z,51.97
2022-09-22T09:27:02.154Z,53.05
2022-09-22T09:28:02.137Z,51.34
2022-09-22T09:29:04.024Z,51.39
2022-09-22T09:30:02.114Z,50.97
2022-09-22T09:31:02.146Z,49.87
2022-09-22T09:32:02.093Z,49.35
2022-09-22T09:33:02.139Z,50.02
2022-09-22T09:34:02.091Z,49.98
2022-09-22T09:35:02.146Z,48.78
2022-09-22T09:36:02.053Z,49.27
2022-09-22T09:37:02.044Z,47.36
2022-09-22T09:38:02.031Z,48.95
2022-09-22T09:39:02.021Z,47.68
2022-09-22T09:40:02.087Z,48.08
2022-09-22T09:41:01.999Z,49.92
2022-09-22T09:42:01.993Z,47.92
2022-09-22T09:43:03.339Z,49.02
2022-09-22T09:44:01.969Z,48.63
2022-09-22T09:45:01.957Z,47.90
2022-09-22T09:46:02.051Z,48.58
2022-09-22T09:47:01.936Z,48.93
2022-09-22T09:48:01.934Z,46.04
2022-09-22T09:49:01.959Z,46.04
2022-09-22T09:50:02.445Z,46.61
2022-09-22T09:51:01.895Z,46.49
2022-09-22T09:52:01.947Z,46.27
2022-09-22T09:53:01.871Z,44.66
2022-09-22T09:54:01.942Z,45.85
2022-09-22T09:55:01.853Z,45.45
2022-09-22T09:56:01.846Z,43.64
2022-09-22T09:57:01.830Z,43.05
2022-09-22T09:58:01.821Z,43.74
2022-09-22T09:59:01.808Z,45.95
2022-09-22T10:00:01.810Z,45.63
2022-09-22T10:01:01.792Z,44.44
2022-09-22T10:02:01.875Z,45.40
2022-09-22T10:03:01.767Z,46.27
2022-09-22T10:04:01.786Z,43.98
2022-09-22T10:05:01.769Z,43.66
2022-09-22T10:06:01.744Z,44.36
2022-09-22T10:07:01.833Z,44.24
2022-09-22T10:08:01.728Z,43.72
2022-09-22T10:09:01.709Z,42.33
2022-09-22T10:10:01.696Z,42.43
2022-09-22T10:11:01.689Z,42.63
2022-09-22T10:12:01.699Z,43.08
2022-09-22T10:13:01.665Z,44.01
2022-09-22T10:14:01.652Z,44.42
2022-09-22T10:15:01.642Z,45.37
2022-09-22T10:16:01.720Z,44.08
2022-09-22T10:17:01.619Z,43.86
2022-09-22T10:18:01.619Z,43.24
2022-09-22T10:19:01.598Z,42.55
2022-09-22T10:20:01.591Z,43.02
2022-09-22T10:21:01.610Z,42.93
2022-09-22T10:22:01.575Z,42.39
2022-09-22T10:23:01.595Z,40.98
2022-09-22T10:24:01.714Z,40.09
2022-09-22T10:25:01.547Z,41.34
2022-09-22T10:26:01.528Z,41.91
2022-09-22T10:27:03.964Z,40.70
2022-09-22T10:28:01.513Z,41.39
2022-09-22T10:29:01.495Z,40.98
2022-09-22T10:30:01.488Z,41.39
2022-09-22T10:31:01.546Z,38.81
2022-09-22T10:32:01.493Z,39.29
2022-09-22T10:33:01.460Z,39.23
2022-09-22T10:34:01.449Z,41.24
2022-09-22T10:35:01.433Z,41.24
2022-09-22T10:36:01.432Z,41.04
2022-09-22T10:37:01.553Z,41.46
2022-09-22T10:38:01.402Z,41.36
2022-09-22T10:39:01.509Z,40.28
2022-09-22T10:40:01.462Z,40.58
2022-09-22T10:41:01.370Z,43.55
2022-09-22T10:42:01.364Z,43.15
2022-09-22T10:43:01.375Z,43.71
2022-09-22T10:44:15.544Z,42.47
2022-09-22T10:45:01.330Z,40.94
2022-09-22T10:46:01.569Z,40.70
2022-09-22T10:47:01.312Z,40.12
2022-09-22T10:48:01.298Z,40.20
2022-09-22T10:49:01.288Z,40.76
2022-09-22T10:50:01.284Z,39.75
2022-09-22T10:51:01.269Z,40.92
2022-09-22T10:52:01.259Z,38.13
2022-09-22T10:53:01.278Z,37.20
2022-09-22T10:54:01.267Z,36.86
2022-09-22T10:55:01.259Z,37.59
2022-09-22T10:56:01.230Z,37.70
2022-09-22T10:57:01.208Z,39.37
2022-09-22T10:58:01.193Z,38.78
2022-09-22T10:59:01.184Z,40.07
2022-09-22T11:00:01.176Z,38.10
2022-09-22T11:01:01.162Z,39.11
2022-09-22T11:02:01.204Z,41.91
2022-09-22T11:03:01.148Z,44.09
2022-09-22T11:04:01.276Z,45.33
2022-09-22T11:05:01.179Z,46.43
2022-09-22T11:06:01.120Z,45.65
2022-09-22T11:07:01.122Z,45.35
2022-09-22T11:08:01.111Z,44.15
2022-09-22T11:09:01.099Z,42.13
2022-09-22T11:10:01.071Z,41.95
2022-09-22T11:11:01.060Z,41.97
2022-09-22T11:12:01.048Z,43.08
2022-09-22T11:13:01.032Z,42.23
2022-09-22T11:14:01.023Z,44.96
2022-09-22T11:15:01.016Z,44.27
2022-09-22T11:16:01.073Z,46.50
2022-09-22T11:17:01.002Z,47.64
2022-09-22T11:18:00.990Z,48.82
2022-09-22T11:19:00.970Z,49.14
2022-09-22T11:20:00.963Z,47.46
2022-09-22T11:21:00.952Z,49.01
2022-09-22T11:22:00.939Z,49.91
2022-09-22T11:23:00.925Z,50.19
2022-09-22T11:24:00.919Z,48.26
2022-09-22T11:25:00.944Z,47.56
2022-09-22T11:26:00.897Z,47.16
2022-09-22T11:27:00.910Z,49.29
2022-09-22T11:28:01.027Z,49.08
2022-09-22T11:29:01.023Z,49.26
2022-09-22T11:30:00.957Z,48.46
2022-09-22T11:31:01.034Z,46.96
2022-09-22T11:32:00.981Z,47.28
2022-09-22T11:33:01.003Z,49.39
2022-09-22T11:34:00.966Z,46.88
2022-09-22T11:35:00.887Z,49.01
2022-09-22T11:36:00.787Z,48.03
2022-09-22T11:37:00.778Z,47.83
2022-09-22T11:38:00.778Z,48.05
2022-09-22T11:39:00.760Z,49.16
2022-09-22T11:40:00.789Z,49.04
2022-09-22T11:41:00.763Z,48.23
2022-09-22T11:42:00.729Z,48.03
2022-09-22T11:43:03.853Z,48.13
2022-09-22T11:44:00.785Z,48.23
2022-09-22T11:45:00.695Z,48.63
2022-09-22T11:46:00.728Z,49.54
2022-09-22T11:47:00.669Z,46.83
2022-09-22T11:48:00.664Z,48.75
2022-09-22T11:49:00.655Z,49.96
2022-09-22T11:50:00.642Z,49.56
2022-09-22T11:51:00.686Z,50.76
2022-09-22T11:52:00.625Z,50.76
2022-09-22T11:53:00.607Z,50.36
2022-09-22T11:54:00.680Z,49.26
2022-09-22T11:55:00.818Z,49.08
2022-09-22T11:56:00.572Z,49.46
2022-09-22T11:57:00.585Z,50.56
2022-09-22T11:58:00.550Z,48.86
2022-09-22T11:59:00.540Z,49.16
2022-09-22T12:00:00.529Z,50.54
2022-09-22T12:01:00.520Z,48.63
2022-09-22T12:02:00.574Z,49.84
2022-09-22T12:03:02.444Z,50.24
2022-09-22T12:04:00.484Z,49.26
2022-09-22T12:05:00.476Z,49.38
2022-09-22T12:06:00.467Z,50.18
2022-09-22T12:07:00.458Z,51.89
2022-09-22T12:08:00.444Z,50.99
2022-09-22T12:09:00.434Z,51.06
2022-09-22T12:10:00.418Z,49.98
2022-09-22T12:11:00.410Z,50.31
2022-09-22T12:12:00.402Z,50.61
2022-09-22T12:13:00.428Z,51.21
2022-09-22T12:14:00.412Z,51.92
2022-09-22T12:15:00.398Z,50.41
2022-09-22T12:16:00.488Z,53.82
2022-09-22T12:17:00.340Z,50.84
2022-09-22T12:18:00.328Z,52.04
2022-09-22T12:19:00.422Z,51.21
2022-09-22T12:20:00.487Z,50.79
2022-09-22T12:21:00.313Z,48.25
2022-09-22T12:22:00.284Z,48.55
2022-09-22T12:23:00.306Z,48.73
2022-09-22T12:24:00.264Z,50.63
2022-09-22T12:25:00.273Z,48.73
2022-09-22T12:26:00.262Z,49.63
2022-09-22T12:27:00.233Z,48.96
2022-09-22T12:28:00.222Z,48.35
2022-09-22T12:29:00.235Z,48.66
2022-09-22T12:30:00.212Z,47.85
2022-09-22T12:31:00.371Z,48.58
2022-09-22T12:32:00.179Z,48.78
2022-09-22T12:33:00.168Z,48.60
2022-09-22T12:34:00.159Z,48.78
2022-09-22T12:35:00.154Z,49.78
2022-09-22T12:36:00.178Z,49.78
2022-09-22T12:37:00.152Z,49.18
2022-09-22T12:38:00.116Z,50.99
2022-09-22T12:39:00.100Z,52.39
2022-09-22T12:40:00.090Z,50.59
2022-09-22T12:41:00.085Z,49.01
2022-09-22T12:42:00.076Z,50.33
2022-09-22T12:43:00.059Z,50.43
2022-09-22T12:44:00.042Z,51.06
2022-09-22T12:45:00.071Z,51.66
2022-09-22T12:46:00.081Z,51.68
2022-09-22T12:47:00.133Z,52.19
2022-09-22T12:47:59.998Z,52.59
2022-09-22T12:48:59.993Z,52.59
2022-09-22T12:49:59.977Z,53.57
2022-09-22T12:50:59.968Z,51.24
2022-09-22T12:51:59.957Z,50.81
2022-09-22T12:52:59.950Z,52.09
2022-09-22T12:53:59.987Z,48.25
2022-09-22T12:54:59.939Z,49.63
2022-09-22T12:55:59.914Z,48.75